sensor_id;sensor_type;location;lat;lon;timestamp;pressure;altitude;pressure_sealevel;temperature;humidity
71621;BME280;59471;42.254;23.102;2023-04-25T00:01:04;95200.06;;;11.38;95.67
71621;BME280;59471;42.254;23.102;2023-04-25T00:03:34;95200.13;;;11.71;94.34
71621;BME280;59471;42.254;23.102;2023-04-25T00:06:00;95208.22;;;11.70;93.37
71621;BME280;59471;42.254;23.102;2023-04-25T00:08:29;95198.13;;;11.73;93.18
71621;BME280;59471;42.254;23.102;2023-04-25T00:10:56;95202.13;;;11.69;94.68
71621;BME280;59471;42.254;23.102;2023-04-25T00:13:22;95190.84;;;11.82;92.80
71621;BME280;59471;42.254;23.102;2023-04-25T00:15:48;95188.84;;;11.77;93.81
71621;BME280;59471;42.254;23.102;2023-04-25T00:18:14;95192.47;;;11.76;94.40
71621;BME280;59471;42.254;23.102;2023-04-25T00:20:40;95182.38;;;11.73;95.15
71621;BME280;59471;42.254;23.102;2023-04-25T00:23:09;95187.22;;;11.70;94.75
71621;BME280;59471;42.254;23.102;2023-04-25T00:25:35;95183.97;;;11.61;96.07
71621;BME280;59471;42.254;23.102;2023-04-25T00:28:00;95186.38;;;11.49;96.71
71621;BME280;59471;42.254;23.102;2023-04-25T00:30:26;95183.56;;;11.64;96.23
71621;BME280;59471;42.254;23.102;2023-04-25T00:32:51;95185.59;;;11.69;95.70
71621;BME280;59471;42.254;23.102;2023-04-25T00:35:17;95188.81;;;11.64;95.87
71621;BME280;59471;42.254;23.102;2023-04-25T00:37:43;95188.81;;;11.64;95.79
71621;BME280;59471;42.254;23.102;2023-04-25T00:40:09;95177.31;;;11.65;95.57
71621;BME280;59471;42.254;23.102;2023-04-25T00:42:35;95173.47;;;11.61;95.18
71621;BME280;59471;42.254;23.102;2023-04-25T00:45:05;95172.69;;;11.54;95.15
71621;BME280;59471;42.254;23.102;2023-04-25T00:47:32;95168.81;;;11.50;95.15
71621;BME280;59471;42.254;23.102;2023-04-25T00:49:58;95165.22;;;11.51;95.06
71621;BME280;59471;42.254;23.102;2023-04-25T00:52:23;95164.41;;;11.57;92.11
71621;BME280;59471;42.254;23.102;2023-04-25T00:54:49;95171.66;;;11.42;92.91
71621;BME280;59471;42.254;23.102;2023-04-25T00:57:15;95161.97;;;11.49;92.70
71621;BME280;59471;42.254;23.102;2023-04-25T00:59:44;95158.13;;;11.45;92.94
71621;BME280;59471;42.254;23.102;2023-04-25T01:02:11;95152.06;;;11.37;93.01
71621;BME280;59471;42.254;23.102;2023-04-25T01:04:38;95155.72;;;11.63;93.98
71621;BME280;59471;42.254;23.102;2023-04-25T01:07:04;95144.81;;;11.53;94.18
71621;BME280;59471;42.254;23.102;2023-04-25T01:09:30;95147.22;;;11.41;95.15
71621;BME280;59471;42.254;23.102;2023-04-25T01:11:57;95139.38;;;11.48;94.12
71621;BME280;59471;42.254;23.102;2023-04-25T01:14:23;95142.59;;;11.50;94.98
71621;BME280;59471;42.254;23.102;2023-04-25T01:16:48;95137.56;;;11.48;94.70
71621;BME280;59471;42.254;23.102;2023-04-25T01:19:16;95139.47;;;11.00;98.90
71621;BME280;59471;42.254;23.102;2023-04-25T01:21:43;95131.69;;;11.26;97.54
71621;BME280;59471;42.254;23.102;2023-04-25T01:24:10;95125.75;;;10.98;100.00
71621;BME280;59471;42.254;23.102;2023-04-25T01:26:36;95121.72;;;10.95;100.00
71621;BME280;59471;42.254;23.102;2023-04-25T01:29:03;95114.09;;;11.07;100.00
71621;BME280;59471;42.254;23.102;2023-04-25T01:31:30;95119.16;;;11.28;99.37
71621;BME280;59471;42.254;23.102;2023-04-25T01:33:56;95125.66;;;11.32;98.45
71621;BME280;59471;42.254;23.102;2023-04-25T01:36:22;95125.81;;;11.18;99.14
71621;BME280;59471;42.254;23.102;2023-04-25T01:38:48;95120.16;;;11.07;99.51
71621;BME280;59471;42.254;23.102;2023-04-25T01:41:14;95111.63;;;10.85;100.00
71621;BME280;59471;42.254;23.102;2023-04-25T01:43:40;95100.72;;;10.82;100.00
71621;BME280;59471;42.254;23.102;2023-04-25T01:46:06;95109.81;;;10.93;100.00
71621;BME280;59471;42.254;23.102;2023-04-25T01:48:31;95112.84;;;10.96;100.00
71621;BME280;59471;42.254;23.102;2023-04-25T01:50:58;95103.97;;;10.90;100.00
71621;BME280;59471;42.254;23.102;2023-04-25T01:53:23;95103.16;;;10.97;100.00
71621;BME280;59471;42.254;23.102;2023-04-25T01:55:49;95109.16;;;10.77;100.00
71621;BME280;59471;42.254;23.102;2023-04-25T01:58:14;95112.44;;;10.93;100.00
71621;BME280;59471;42.254;23.102;2023-04-25T02:00:40;95105.97;;;10.88;100.00
71621;BME280;59471;42.254;23.102;2023-04-25T02:03:06;95102.09;;;10.71;100.00
71621;BME280;59471;42.254;23.102;2023-04-25T02:05:36;95091.88;;;10.96;99.83
71621;BME280;59471;42.254;23.102;2023-04-25T02:08:04;95106.81;;;11.02;98.27
71621;BME280;59471;42.254;23.102;2023-04-25T02:10:31;95101.53;;;10.82;99.93
71621;BME280;59471;42.254;23.102;2023-04-25T02:12:57;95096.16;;;10.97;98.52
71621;BME280;59471;42.254;23.102;2023-04-25T02:15:23;95087.84;;;10.94;99.20
71621;BME280;59471;42.254;23.102;2023-04-25T02:17:49;95086.66;;;11.03;97.15
71621;BME280;59471;42.254;23.102;2023-04-25T02:20:14;95087.44;;;10.90;98.06
71621;BME280;59471;42.254;23.102;2023-04-25T02:22:41;95082.22;;;10.97;97.84
71621;BME280;59471;42.254;23.102;2023-04-25T02:25:09;95085.06;;;11.02;96.92
71621;BME280;59471;42.254;23.102;2023-04-25T02:27:35;95083.44;;;11.01;96.85
71621;BME280;59471;42.254;23.102;2023-04-25T02:30:01;95070.53;;;11.06;96.48
71621;BME280;59471;42.254;23.102;2023-04-25T02:32:26;95066.09;;;10.93;96.59
71621;BME280;59471;42.254;23.102;2023-04-25T02:34:52;95063.88;;;10.90;96.57
71621;BME280;59471;42.254;23.102;2023-04-25T02:37:18;95060.41;;;10.76;97.57
71621;BME280;59471;42.254;23.102;2023-04-25T02:39:43;95068.25;;;10.63;99.04
71621;BME280;59471;42.254;23.102;2023-04-25T02:42:09;95063.97;;;10.62;99.29
71621;BME280;59471;42.254;23.102;2023-04-25T02:44:35;95061.00;;;10.72;98.54
71621;BME280;59471;42.254;23.102;2023-04-25T02:47:00;95062.66;;;10.31;100.00
71621;BME280;59471;42.254;23.102;2023-04-25T02:49:26;95071.34;;;10.38;100.00
71621;BME280;59471;42.254;23.102;2023-04-25T02:51:51;95065.38;;;10.16;100.00
71621;BME280;59471;42.254;23.102;2023-04-25T02:54:17;95064.19;;;10.19;100.00
71621;BME280;59471;42.254;23.102;2023-04-25T02:56:42;95067.97;;;10.10;100.00
71621;BME280;59471;42.254;23.102;2023-04-25T02:59:08;95055.34;;;10.20;100.00
71621;BME280;59471;42.254;23.102;2023-04-25T03:01:33;95065.34;;;10.10;100.00
71621;BME280;59471;42.254;23.102;2023-04-25T03:03:59;95063.25;;;10.27;100.00
71621;BME280;59471;42.254;23.102;2023-04-25T03:06:24;95067.53;;;10.34;100.00
71621;BME280;59471;42.254;23.102;2023-04-25T03:08:50;95069.97;;;10.49;100.00
71621;BME280;59471;42.254;23.102;2023-04-25T03:11:15;95073.38;;;10.43;99.77
71621;BME280;59471;42.254;23.102;2023-04-25T03:13:41;95075.69;;;10.25;100.00
71621;BME280;59471;42.254;23.102;2023-04-25T03:16:07;95082.00;;;10.37;100.00
71621;BME280;59471;42.254;23.102;2023-04-25T03:18:32;95074.78;;;10.39;100.00
71621;BME280;59471;42.254;23.102;2023-04-25T03:20:58;95071.97;;;10.40;100.00
71621;BME280;59471;42.254;23.102;2023-04-25T03:23:23;95067.19;;;10.16;100.00
71621;BME280;59471;42.254;23.102;2023-04-25T03:25:49;95081.59;;;10.33;100.00
71621;BME280;59471;42.254;23.102;2023-04-25T03:28:14;95081.03;;;10.38;100.00
71621;BME280;59471;42.254;23.102;2023-04-25T03:30:40;95078.88;;;10.20;100.00
71621;BME280;59471;42.254;23.102;2023-04-25T03:33:05;95086.97;;;10.25;100.00
71621;BME280;59471;42.254;23.102;2023-04-25T03:35:31;95086.31;;;10.16;100.00
71621;BME280;59471;42.254;23.102;2023-04-25T03:37:56;95084.19;;;9.98;100.00
71621;BME280;59471;42.254;23.102;2023-04-25T03:40:22;95093.13;;;10.11;100.00
71621;BME280;59471;42.254;23.102;2023-04-25T03:42:47;95089.56;;;10.18;100.00
71621;BME280;59471;42.254;23.102;2023-04-25T03:45:13;95086.56;;;10.21;100.00
71621;BME280;59471;42.254;23.102;2023-04-25T03:47:38;95083.81;;;10.36;100.00
71621;BME280;59471;42.254;23.102;2023-04-25T03:50:05;95087.63;;;10.34;100.00
71621;BME280;59471;42.254;23.102;2023-04-25T03:52:31;95093.50;;;10.08;100.00
71621;BME280;59471;42.254;23.102;2023-04-25T03:54:56;95088.06;;;10.03;100.00
71621;BME280;59471;42.254;23.102;2023-04-25T03:57:22;95089.91;;;10.09;100.00
71621;BME280;59471;42.254;23.102;2023-04-25T03:59:47;95086.09;;;10.18;100.00
71621;BME280;59471;42.254;23.102;2023-04-25T04:02:13;95093.75;;;10.48;100.00
71621;BME280;59471;42.254;23.102;2023-04-25T04:04:38;95091.53;;;10.44;100.00
71621;BME280;59471;42.254;23.102;2023-04-25T04:07:04;95083.72;;;10.64;100.00
71621;BME280;59471;42.254;23.102;2023-04-25T04:09:30;95086.06;;;10.39;100.00
71621;BME280;59471;42.254;23.102;2023-04-25T04:11:56;95084.41;;;10.32;100.00
71621;BME280;59471;42.254;23.102;2023-04-25T04:14:21;95087.72;;;10.12;100.00
71621;BME280;59471;42.254;23.102;2023-04-25T04:16:47;95083.72;;;10.23;100.00
71621;BME280;59471;42.254;23.102;2023-04-25T04:19:12;95089.59;;;10.25;100.00
71621;BME280;59471;42.254;23.102;2023-04-25T04:21:38;95091.28;;;10.39;100.00
71621;BME280;59471;42.254;23.102;2023-04-25T04:24:03;95086.56;;;10.63;100.00
71621;BME280;59471;42.254;23.102;2023-04-25T04:26:32;95081.63;;;10.40;100.00
71621;BME280;59471;42.254;23.102;2023-04-25T04:28:58;95082.13;;;10.22;100.00
71621;BME280;59471;42.254;23.102;2023-04-25T04:31:24;95088.22;;;10.29;100.00
71621;BME280;59471;42.254;23.102;2023-04-25T04:33:49;95087.34;;;10.22;100.00
71621;BME280;59471;42.254;23.102;2023-04-25T04:36:16;95080.38;;;10.29;100.00
71621;BME280;59471;42.254;23.102;2023-04-25T04:38:45;95083.25;;;10.41;100.00
71621;BME280;59471;42.254;23.102;2023-04-25T04:41:10;95083.25;;;10.41;100.00
71621;BME280;59471;42.254;23.102;2023-04-25T04:43:36;95092.56;;;10.50;100.00
71621;BME280;59471;42.254;23.102;2023-04-25T04:46:02;95090.94;;;10.56;100.00
71621;BME280;59471;42.254;23.102;2023-04-25T04:48:29;95095.00;;;10.65;100.00
71621;BME280;59471;42.254;23.102;2023-04-25T04:50:58;95095.38;;;10.55;100.00
71621;BME280;59471;42.254;23.102;2023-04-25T04:53:23;95094.03;;;10.66;100.00
71621;BME280;59471;42.254;23.102;2023-04-25T04:55:49;95095.47;;;10.75;100.00
71621;BME280;59471;42.254;23.102;2023-04-25T04:58:15;95101.53;;;10.82;100.00
71621;BME280;59471;42.254;23.102;2023-04-25T05:00:40;95099.09;;;10.81;99.94
71621;BME280;59471;42.254;23.102;2023-04-25T05:03:06;95105.59;;;10.92;100.00
71621;BME280;59471;42.254;23.102;2023-04-25T05:05:31;95091.09;;;10.96;100.00
71621;BME280;59471;42.254;23.102;2023-04-25T05:07:57;95096.31;;;10.96;99.65
71621;BME280;59471;42.254;23.102;2023-04-25T05:10:22;95090.91;;;10.97;98.91
71621;BME280;59471;42.254;23.102;2023-04-25T05:12:48;95087.69;;;11.02;99.37
71621;BME280;59471;42.254;23.102;2023-04-25T05:15:14;95088.50;;;11.09;99.24
71621;BME280;59471;42.254;23.102;2023-04-25T05:17:39;95087.44;;;10.90;100.00
71621;BME280;59471;42.254;23.102;2023-04-25T05:20:06;95093.09;;;10.94;99.92
71621;BME280;59471;42.254;23.102;2023-04-25T05:22:34;95090.66;;;10.85;100.00
71621;BME280;59471;42.254;23.102;2023-04-25T05:25:00;95093.06;;;10.80;100.00
71621;BME280;59471;42.254;23.102;2023-04-25T05:27:26;95088.28;;;10.97;100.00
71621;BME280;59471;42.254;23.102;2023-04-25T05:29:52;95085.44;;;10.99;98.99
71621;BME280;59471;42.254;23.102;2023-04-25T05:32:18;95082.81;;;10.85;99.55
71621;BME280;59471;42.254;23.102;2023-04-25T05:34:43;95087.84;;;10.94;100.00
71621;BME280;59471;42.254;23.102;2023-04-25T05:37:09;95093.84;;;10.74;100.00
71621;BME280;59471;42.254;23.102;2023-04-25T05:39:35;95095.53;;;10.95;100.00
71621;BME280;59471;42.254;23.102;2023-04-25T05:42:00;95095.16;;;11.25;99.49
71621;BME280;59471;42.254;23.102;2023-04-25T05:44:26;95093.97;;;11.34;99.33
71621;BME280;59471;42.254;23.102;2023-04-25T05:46:52;95084.31;;;11.48;98.13
71621;BME280;59471;42.254;23.102;2023-04-25T05:49:17;95080.50;;;11.64;96.91
71621;BME280;59471;42.254;23.102;2023-04-25T05:51:43;95080.47;;;11.70;96.31
71621;BME280;59471;42.254;23.102;2023-04-25T05:54:08;95082.69;;;11.73;95.77
71621;BME280;59471;42.254;23.102;2023-04-25T05:56:34;95087.72;;;11.81;96.44
71621;BME280;59471;42.254;23.102;2023-04-25T05:59:00;95084.31;;;11.74;96.21
71621;BME280;59471;42.254;23.102;2023-04-25T06:01:26;95091.78;;;11.77;96.25
71621;BME280;59471;42.254;23.102;2023-04-25T06:03:51;95094.38;;;11.84;95.41
71621;BME280;59471;42.254;23.102;2023-04-25T06:06:18;95090.75;;;11.65;95.97
71621;BME280;59471;42.254;23.102;2023-04-25T06:08:43;95098.44;;;11.73;96.43
71621;BME280;59471;42.254;23.102;2023-04-25T06:11:10;95096.84;;;11.92;94.77
71621;BME280;59471;42.254;23.102;2023-04-25T06:13:35;95088.34;;;11.83;95.50
71621;BME280;59471;42.254;23.102;2023-04-25T06:16:01;95087.31;;;11.78;96.13
71621;BME280;59471;42.254;23.102;2023-04-25T06:18:26;95092.78;;;12.03;96.17
71621;BME280;59471;42.254;23.102;2023-04-25T06:20:52;95081.09;;;11.99;94.81
71621;BME280;59471;42.254;23.102;2023-04-25T06:23:17;95084.28;;;12.14;93.99
71621;BME280;59471;42.254;23.102;2023-04-25T06:25:43;95088.44;;;12.42;94.88
71621;BME280;59471;42.254;23.102;2023-04-25T06:28:09;95082.09;;;12.63;92.71
71621;BME280;59471;42.254;23.102;2023-04-25T06:30:34;95081.81;;;12.33;92.94
71621;BME280;59471;42.254;23.102;2023-04-25T06:33:00;95086.63;;;12.49;93.33
71621;BME280;59471;42.254;23.102;2023-04-25T06:35:25;95085.84;;;12.28;89.98
71621;BME280;59471;42.254;23.102;2023-04-25T06:37:51;95085.03;;;12.35;90.35
71621;BME280;59471;42.254;23.102;2023-04-25T06:40:16;95085.16;;;12.60;90.40
71621;BME280;59471;42.254;23.102;2023-04-25T06:42:42;95084.16;;;12.54;81.51
71621;BME280;59471;42.254;23.102;2023-04-25T06:45:08;95081.84;;;12.78;78.26
71621;BME280;59471;42.254;23.102;2023-04-25T06:47:34;95075.03;;;13.08;79.08
71621;BME280;59471;42.254;23.102;2023-04-25T06:50:00;95081.31;;;13.39;76.56
71621;BME280;59471;42.254;23.102;2023-04-25T06:52:25;95085.63;;;13.58;76.65
71621;BME280;59471;42.254;23.102;2023-04-25T06:54:51;95089.94;;;13.78;75.74
71621;BME280;59471;42.254;23.102;2023-04-25T06:57:16;95085.28;;;13.98;74.90
71621;BME280;59471;42.254;23.102;2023-04-25T06:59:42;95091.47;;;14.29;72.90
71621;BME280;59471;42.254;23.102;2023-04-25T07:02:07;95083.59;;;14.47;74.29
71621;BME280;59471;42.254;23.102;2023-04-25T07:04:33;95086.13;;;14.35;71.35
71621;BME280;59471;42.254;23.102;2023-04-25T07:06:58;95083.31;;;14.55;70.39
71621;BME280;59471;42.254;23.102;2023-04-25T07:09:26;95084.44;;;14.78;70.19
71621;BME280;59471;42.254;23.102;2023-04-25T07:11:51;95085.81;;;14.99;71.31
71621;BME280;59471;42.254;23.102;2023-04-25T07:14:17;95086.66;;;14.81;68.52
71621;BME280;59471;42.254;23.102;2023-04-25T07:16:42;95101.38;;;15.19;70.84
71621;BME280;59471;42.254;23.102;2023-04-25T07:19:08;95092.84;;;15.47;69.01
71621;BME280;59471;42.254;23.102;2023-04-25T07:21:33;95090.06;;;15.30;67.14
71621;BME280;59471;42.254;23.102;2023-04-25T07:23:59;95098.03;;;15.53;66.88
71621;BME280;59471;42.254;23.102;2023-04-25T07:26:24;95094.94;;;15.57;65.82
71621;BME280;59471;42.254;23.102;2023-04-25T07:28:50;95083.19;;;15.71;65.51
71621;BME280;59471;42.254;23.102;2023-04-25T07:31:19;95084.81;;;15.95;64.49
71621;BME280;59471;42.254;23.102;2023-04-25T07:33:44;95083.31;;;16.11;67.23
71621;BME280;59471;42.254;23.102;2023-04-25T07:36:11;95086.41;;;16.43;67.47
71621;BME280;59471;42.254;23.102;2023-04-25T07:38:37;95082.50;;;15.87;64.16
71621;BME280;59471;42.254;23.102;2023-04-25T07:41:03;95095.50;;;16.12;65.37
71621;BME280;59471;42.254;23.102;2023-04-25T07:43:29;95083.78;;;16.08;64.16
71621;BME280;59471;42.254;23.102;2023-04-25T07:45:56;95077.59;;;16.14;65.42
71621;BME280;59471;42.254;23.102;2023-04-25T07:48:22;95084.22;;;16.40;63.00
71621;BME280;59471;42.254;23.102;2023-04-25T07:50:48;95080.38;;;16.60;63.66
71621;BME280;59471;42.254;23.102;2023-04-25T07:53:14;95072.06;;;16.28;62.13
71621;BME280;59471;42.254;23.102;2023-04-25T07:55:39;95076.00;;;15.60;61.43
71621;BME280;59471;42.254;23.102;2023-04-25T07:58:08;95080.91;;;16.10;61.94
71621;BME280;59471;42.254;23.102;2023-04-25T08:00:36;95068.03;;;16.13;60.13
71621;BME280;59471;42.254;23.102;2023-04-25T08:03:02;95069.41;;;16.16;63.65
71621;BME280;59471;42.254;23.102;2023-04-25T08:05:28;95068.53;;;16.74;63.72
71621;BME280;59471;42.254;23.102;2023-04-25T08:07:54;95068.50;;;16.86;62.16
71621;BME280;59471;42.254;23.102;2023-04-25T08:10:19;95067.16;;;16.60;60.59
71621;BME280;59471;42.254;23.102;2023-04-25T08:12:45;95065.88;;;16.74;61.61
71621;BME280;59471;42.254;23.102;2023-04-25T08:15:11;95057.19;;;16.62;59.24
71621;BME280;59471;42.254;23.102;2023-04-25T08:17:38;95070.75;;;16.54;60.40
71621;BME280;59471;42.254;23.102;2023-04-25T08:20:05;95057.16;;;15.86;60.66
71621;BME280;59471;42.254;23.102;2023-04-25T08:22:31;95057.38;;;16.72;61.86
71621;BME280;59471;42.254;23.102;2023-04-25T08:24:56;95054.72;;;16.84;57.71
71621;BME280;59471;42.254;23.102;2023-04-25T08:27:22;95056.28;;;16.44;60.14
71621;BME280;59471;42.254;23.102;2023-04-25T08:29:49;95049.25;;;16.50;59.82
71621;BME280;59471;42.254;23.102;2023-04-25T08:32:15;95051.06;;;17.02;60.30
71621;BME280;59471;42.254;23.102;2023-04-25T08:34:41;95052.47;;;16.92;57.38
71621;BME280;59471;42.254;23.102;2023-04-25T08:37:08;95052.59;;;16.45;57.89
71621;BME280;59471;42.254;23.102;2023-04-25T08:39:38;95061.91;;;16.48;57.41
71621;BME280;59471;42.254;23.102;2023-04-25T08:42:06;95055.22;;;16.98;60.70
71621;BME280;59471;42.254;23.102;2023-04-25T08:44:35;95064.72;;;17.10;58.30
71621;BME280;59471;42.254;23.102;2023-04-25T08:47:03;95053.88;;;17.74;58.95
71621;BME280;59471;42.254;23.102;2023-04-25T08:49:33;95049.81;;;17.50;55.21
71621;BME280;59471;42.254;23.102;2023-04-25T08:52:02;95042.19;;;17.08;55.18
71621;BME280;59471;42.254;23.102;2023-04-25T08:54:32;95048.63;;;16.19;56.34
71621;BME280;59471;42.254;23.102;2023-04-25T08:57:00;95049.66;;;16.07;58.53
71621;BME280;59471;42.254;23.102;2023-04-25T08:59:30;95045.63;;;16.39;59.69
71621;BME280;59471;42.254;23.102;2023-04-25T09:01:56;95046.56;;;16.33;58.31
71621;BME280;59471;42.254;23.102;2023-04-25T09:04:22;95046.13;;;16.65;58.30
71621;BME280;59471;42.254;23.102;2023-04-25T09:06:48;95037.81;;;16.73;56.24
71621;BME280;59471;42.254;23.102;2023-04-25T09:09:13;95036.53;;;16.87;56.97
71621;BME280;59471;42.254;23.102;2023-04-25T09:11:40;95030.66;;;17.14;55.45
71621;BME280;59471;42.254;23.102;2023-04-25T09:14:18;95032.88;;;17.34;54.60
71621;BME280;59471;42.254;23.102;2023-04-25T09:16:57;95022.19;;;17.29;52.84
71621;BME280;59471;42.254;23.102;2023-04-25T09:19:26;95023.78;;;17.30;53.62
71621;BME280;59471;42.254;23.102;2023-04-25T09:21:54;95014.72;;;17.09;53.41
71621;BME280;59471;42.254;23.102;2023-04-25T09:24:40;95016.94;;;17.00;55.82
71621;BME280;59471;42.254;23.102;2023-04-25T09:27:09;95012.94;;;16.45;53.84
71621;BME280;59471;42.254;23.102;2023-04-25T09:29:38;95009.19;;;16.41;54.73
71621;BME280;59471;42.254;23.102;2023-04-25T09:32:25;95016.00;;;16.26;56.12
71621;BME280;59471;42.254;23.102;2023-04-25T09:34:55;95003.41;;;16.44;55.95
71621;BME280;59471;42.254;23.102;2023-04-25T09:37:28;94993.25;;;16.65;56.53
71621;BME280;59471;42.254;23.102;2023-04-25T09:39:59;95003.84;;;16.65;57.00
71621;BME280;59471;42.254;23.102;2023-04-25T09:42:28;95004.50;;;16.32;57.86
71621;BME280;59471;42.254;23.102;2023-04-25T09:44:57;95003.81;;;16.25;53.20
71621;BME280;59471;42.254;23.102;2023-04-25T09:47:24;95005.25;;;16.56;55.00
71621;BME280;59471;42.254;23.102;2023-04-25T09:49:52;95008.19;;;16.31;55.80
71621;BME280;59471;42.254;23.102;2023-04-25T09:52:20;95010.69;;;17.06;53.58
71621;BME280;59471;42.254;23.102;2023-04-25T09:54:48;95015.09;;;17.01;52.85
71621;BME280;59471;42.254;23.102;2023-04-25T09:57:19;95022.56;;;16.75;54.23
71621;BME280;59471;42.254;23.102;2023-04-25T09:59:50;95027.13;;;16.39;53.61
71621;BME280;59471;42.254;23.102;2023-04-25T10:02:22;95033.56;;;16.20;57.17
71621;BME280;59471;42.254;23.102;2023-04-25T10:04:53;95045.25;;;15.53;59.41
71621;BME280;59471;42.254;23.102;2023-04-25T10:07:24;95040.78;;;15.42;57.64
71621;BME280;59471;42.254;23.102;2023-04-25T10:09:58;95025.78;;;15.13;56.73
71621;BME280;59471;42.254;23.102;2023-04-25T10:12:26;95012.53;;;14.89;58.11
71621;BME280;59471;42.254;23.102;2023-04-25T10:14:52;95000.19;;;15.01;56.34
71621;BME280;59471;42.254;23.102;2023-04-25T10:17:20;95000.13;;;15.20;60.01
71621;BME280;59471;42.254;23.102;2023-04-25T10:19:48;94998.72;;;15.71;60.08
71621;BME280;59471;42.254;23.102;2023-04-25T10:22:18;94989.97;;;16.06;59.40
71621;BME280;59471;42.254;23.102;2023-04-25T10:24:48;94989.25;;;16.22;61.59
71621;BME280;59471;42.254;23.102;2023-04-25T10:27:15;94987.25;;;16.41;59.77
71621;BME280;59471;42.254;23.102;2023-04-25T10:29:40;94976.25;;;16.61;56.28
71621;BME280;59471;42.254;23.102;2023-04-25T10:32:08;94970.38;;;17.16;56.53
71621;BME280;59471;42.254;23.102;2023-04-25T10:34:42;94969.97;;;17.58;53.27
71621;BME280;59471;42.254;23.102;2023-04-25T10:37:12;94959.34;;;17.92;51.50
71621;BME280;59471;42.254;23.102;2023-04-25T10:39:39;94964.91;;;18.12;52.04
71621;BME280;59471;42.254;23.102;2023-04-25T10:42:08;94954.28;;;18.56;48.23
71621;BME280;59471;42.254;23.102;2023-04-25T10:44:37;94946.63;;;18.82;51.24
71621;BME280;59471;42.254;23.102;2023-04-25T10:47:06;94943.25;;;19.18;47.23
71621;BME280;59471;42.254;23.102;2023-04-25T10:49:34;94934.66;;;19.06;48.89
71621;BME280;59471;42.254;23.102;2023-04-25T10:52:28;94952.88;;;18.97;52.85
71621;BME280;59471;42.254;23.102;2023-04-25T10:54:56;94946.69;;;17.77;47.13
71621;BME280;59471;42.254;23.102;2023-04-25T11:00:14;94952.34;;;17.47;48.96
71621;BME280;59471;42.254;23.102;2023-04-25T11:02:51;94947.84;;;17.47;48.45
71621;BME280;59471;42.254;23.102;2023-04-25T11:08:00;95006.09;;;16.33;57.75
71621;BME280;59471;42.254;23.102;2023-04-25T11:10:30;95016.66;;;15.27;65.44
71621;BME280;59471;42.254;23.102;2023-04-25T11:12:57;95020.28;;;14.17;68.41
71621;BME280;59471;42.254;23.102;2023-04-25T11:15:23;95029.19;;;13.79;74.02
71621;BME280;59471;42.254;23.102;2023-04-25T11:17:51;95003.84;;;14.03;80.90
71621;BME280;59471;42.254;23.102;2023-04-25T11:20:17;95000.19;;;14.04;78.06
71621;BME280;59471;42.254;23.102;2023-04-25T11:22:45;94976.59;;;14.28;76.99
71621;BME280;59471;42.254;23.102;2023-04-25T11:25:12;94969.66;;;14.82;71.24
71621;BME280;59471;42.254;23.102;2023-04-25T11:27:59;94968.72;;;15.53;71.64
71621;BME280;59471;42.254;23.102;2023-04-25T11:30:27;94960.25;;;15.98;73.13
71621;BME280;59471;42.254;23.102;2023-04-25T11:32:53;94949.75;;;16.04;70.86
71621;BME280;59471;42.254;23.102;2023-04-25T11:35:20;94957.34;;;16.12;73.19
71621;BME280;59471;42.254;23.102;2023-04-25T11:37:48;94946.81;;;16.40;71.22
71621;BME280;59471;42.254;23.102;2023-04-25T11:40:14;94946.56;;;16.42;70.65
71621;BME280;59471;42.254;23.102;2023-04-25T11:42:45;94953.66;;;16.13;70.08
71621;BME280;59471;42.254;23.102;2023-04-25T11:45:12;94945.41;;;15.97;67.97
71621;BME280;59471;42.254;23.102;2023-04-25T11:47:39;94955.78;;;15.87;72.36
71621;BME280;59471;42.254;23.102;2023-04-25T11:50:06;94952.53;;;16.09;65.95
71621;BME280;59471;42.254;23.102;2023-04-25T11:52:44;94959.00;;;15.89;68.93
71621;BME280;59471;42.254;23.102;2023-04-25T11:55:18;94967.44;;;15.44;71.67
71621;BME280;59471;42.254;23.102;2023-04-25T11:57:48;94972.50;;;15.34;68.05
71621;BME280;59471;42.254;23.102;2023-04-25T12:00:20;94978.22;;;15.31;68.85
71621;BME280;59471;42.254;23.102;2023-04-25T12:02:50;94978.22;;;15.31;67.25
71621;BME280;59471;42.254;23.102;2023-04-25T12:05:18;94976.78;;;14.93;68.63
71621;BME280;59471;42.254;23.102;2023-04-25T12:07:45;94983.69;;;14.94;70.08
71621;BME280;59471;42.254;23.102;2023-04-25T12:10:12;94992.63;;;14.63;65.17
71621;BME280;59471;42.254;23.102;2023-04-25T12:12:45;94998.25;;;14.30;67.32
71621;BME280;59471;42.254;23.102;2023-04-25T12:15:22;95001.94;;;13.92;66.55
71621;BME280;59471;42.254;23.102;2023-04-25T12:17:51;95001.66;;;14.19;66.73
71621;BME280;59471;42.254;23.102;2023-04-25T12:20:21;94999.75;;;14.07;65.27
71621;BME280;59471;42.254;23.102;2023-04-25T12:22:50;94991.94;;;14.49;67.25
71621;BME280;59471;42.254;23.102;2023-04-25T12:28:18;95001.22;;;14.03;66.07
71621;BME280;59471;42.254;23.102;2023-04-25T12:33:34;95019.50;;;14.53;69.39
71621;BME280;59471;42.254;23.102;2023-04-25T12:36:02;95020.66;;;14.21;72.32
71621;BME280;59471;42.254;23.102;2023-04-25T12:38:39;95024.88;;;14.22;72.98
71621;BME280;59471;42.254;23.102;2023-04-25T12:41:06;95026.50;;;14.41;73.83
71621;BME280;59471;42.254;23.102;2023-04-25T12:43:32;95015.97;;;14.59;74.28
71621;BME280;59471;42.254;23.102;2023-04-25T12:45:58;95025.03;;;14.64;74.73
71621;BME280;59471;42.254;23.102;2023-04-25T12:48:24;95014.34;;;14.40;76.20
71621;BME280;59471;42.254;23.102;2023-04-25T12:50:50;95011.78;;;14.33;76.11
71621;BME280;59471;42.254;23.102;2023-04-25T12:53:21;95013.34;;;14.04;77.24
71621;BME280;59471;42.254;23.102;2023-04-25T12:55:48;95008.28;;;13.84;77.72
71621;BME280;59471;42.254;23.102;2023-04-25T12:58:17;95012.69;;;13.90;76.05